Time;durP1;ratioP1;P1;durP2;ratioP2;P2;SDS_P1;SDS_P2;PMS_P1;PMS_P2;Temp;Humidity;BMP_temperature;BMP_pressure;BME280_temperature;BME280_humidity;BME280_pressure;Samples;Min_cycle;Max_cycle;Signal;HPM_P1;HPM_P2
2021/08/22 00:02:05;;;;;;;0.60;0.60;;;8.30;99.90;;;;;;5028503;28;20629;-68
2021/08/22 00:04:31;;;;;;;0.70;0.70;;;8.30;99.90;;;;;;5048335;28;20209;-69
2021/08/22 00:06:57;;;;;;;0.60;0.60;;;8.30;99.90;;;;;;5050171;28;20208;-69
2021/08/22 00:09:23;;;;;;;0.60;0.60;;;8.20;99.90;;;;;;5038136;28;20197;-68
2021/08/22 00:11:49;;;;;;;0.70;0.70;;;8.10;99.90;;;;;;5046904;28;20243;-68
2021/08/22 00:14:14;;;;;;;0.80;0.80;;;8.10;99.90;;;;;;5037428;28;20206;-68
2021/08/22 00:16:41;;;;;;;0.63;0.63;;;8.10;99.90;;;;;;5044086;28;20224;-68
2021/08/22 00:19:07;;;;;;;0.70;0.70;;;8.00;99.90;;;;;;5040384;28;20206;-70
2021/08/22 00:21:33;;;;;;;0.60;0.60;;;8.00;99.90;;;;;;5038673;28;20268;-68
2021/08/22 00:23:59;;;;;;;0.60;0.60;;;8.00;99.90;;;;;;5014932;28;20225;-68
2021/08/22 00:26:24;;;;;;;0.60;0.60;;;8.00;99.90;;;;;;5045316;28;20210;-68
2021/08/22 00:28:50;;;;;;;0.70;0.70;;;8.00;99.90;;;;;;5018282;28;20229;-67
2021/08/22 00:31:16;;;;;;;0.63;0.63;;;8.00;99.90;;;;;;5051873;28;20205;-68
2021/08/22 00:33:42;;;;;;;0.60;0.60;;;8.00;99.90;;;;;;5052192;28;20644;-68
2021/08/22 00:36:07;;;;;;;0.65;0.65;;;8.00;99.90;;;;;;5033235;28;20653;-69
2021/08/22 00:38:33;;;;;;;0.60;0.60;;;8.00;99.90;;;;;;5035443;28;20213;-68
2021/08/22 00:41:00;;;;;;;0.80;0.80;;;7.90;99.90;;;;;;5019460;28;20217;-70
2021/08/22 00:43:27;;;;;;;0.70;0.70;;;7.90;99.90;;;;;;5035419;28;20292;-69
2021/08/22 00:45:53;;;;;;;0.70;0.70;;;7.80;99.90;;;;;;5018796;28;20210;-68
2021/08/22 00:48:19;;;;;;;0.60;0.60;;;7.80;99.90;;;;;;5041588;28;20203;-69
2021/08/22 00:50:46;;;;;;;0.70;0.70;;;7.80;99.90;;;;;;5046283;28;20209;-69
2021/08/22 00:53:13;;;;;;;0.60;0.60;;;7.80;99.90;;;;;;5022256;28;20202;-69
2021/08/22 00:55:39;;;;;;;0.60;0.60;;;7.80;99.90;;;;;;5037629;28;20210;-68
2021/08/22 00:58:05;;;;;;;0.65;0.65;;;7.70;99.90;;;;;;5034158;28;20287;-68
2021/08/22 01:00:31;;;;;;;0.60;0.60;;;7.70;99.90;;;;;;5051879;28;20228;-70
2021/08/22 01:03:29;;;;;;;0.60;0.60;;;7.70;99.90;;;;;;5034017;28;20290;-68
2021/08/22 01:06:20;;;;;;;0.60;0.60;;;7.60;99.90;;;;;;5045603;28;20201;-68
2021/08/22 01:08:56;;;;;;;0.70;0.70;;;7.60;99.90;;;;;;5031503;28;20232;-68
2021/08/22 01:11:24;;;;;;;0.68;0.68;;;7.60;99.90;;;;;;5035074;28;20201;-69
2021/08/22 01:13:57;;;;;;;0.60;0.60;;;7.60;99.90;;;;;;5042243;28;20621;-68
2021/08/22 01:16:28;;;;;;;5.70;1.55;;;7.60;99.90;;;;;;5035911;28;20213;-67
2021/08/22 01:18:59;;;;;;;0.60;0.60;;;7.60;99.90;;;;;;5023008;28;20247;-68
2021/08/22 01:21:25;;;;;;;0.80;0.70;;;7.60;99.90;;;;;;5019259;28;20252;-67
2021/08/22 01:23:54;;;;;;;0.60;0.60;;;7.60;99.90;;;;;;5023101;28;20201;-68
2021/08/22 01:26:26;;;;;;;0.70;0.70;;;7.50;99.90;;;;;;5044834;28;20289;-73
2021/08/22 01:28:53;;;;;;;0.73;0.73;;;7.50;99.90;;;;;;5040618;28;20230;-70
2021/08/22 01:31:24;;;;;;;0.60;0.60;;;7.50;99.90;;;;;;5036921;28;20229;-69
2021/08/22 01:33:51;;;;;;;0.63;0.63;;;7.50;99.90;;;;;;5037840;28;20272;-67
2021/08/22 01:36:20;;;;;;;0.60;0.60;;;7.40;99.90;;;;;;5042603;28;20201;-68
2021/08/22 01:38:47;;;;;;;0.70;0.70;;;7.40;99.90;;;;;;5036865;28;20653;-68
2021/08/22 01:41:14;;;;;;;1.02;0.93;;;7.40;99.90;;;;;;5038356;28;20220;-69
2021/08/22 01:43:40;;;;;;;0.70;0.70;;;7.40;99.90;;;;;;5036984;28;20201;-69
2021/08/22 01:46:07;;;;;;;0.60;0.60;;;7.40;99.90;;;;;;5038254;28;20217;-69
2021/08/22 01:48:34;;;;;;;0.65;0.65;;;7.30;99.90;;;;;;5016510;28;20202;-68
2021/08/22 01:51:01;;;;;;;1.38;1.08;;;7.30;99.90;;;;;;5048392;28;20579;-68
2021/08/22 01:53:33;;;;;;;0.65;0.65;;;7.20;99.90;;;;;;5043028;28;20676;-68
2021/08/22 01:55:58;;;;;;;0.70;0.70;;;7.20;99.90;;;;;;5017155;28;20209;-67
2021/08/22 01:58:26;;;;;;;0.70;0.70;;;7.20;99.90;;;;;;5040704;28;20214;-69
2021/08/22 02:00:52;;;;;;;0.60;0.60;;;7.20;99.90;;;;;;5039086;28;20820;-68
2021/08/22 02:03:25;;;;;;;0.70;0.70;;;7.20;99.90;;;;;;5023723;28;20226;-69
2021/08/22 02:05:55;;;;;;;1.95;1.02;;;7.10;99.90;;;;;;5028884;28;20212;-69
2021/08/22 02:08:25;;;;;;;0.80;0.80;;;7.10;99.90;;;;;;5006247;28;20210;-69
2021/08/22 02:11:00;;;;;;;0.70;0.70;;;7.10;99.90;;;;;;5037997;28;20251;-68
2021/08/22 02:13:34;;;;;;;0.70;0.70;;;7.10;99.90;;;;;;5042127;28;20259;-68
2021/08/22 02:16:02;;;;;;;0.60;0.60;;;7.10;99.90;;;;;;5048298;28;20201;-70
2021/08/22 02:18:29;;;;;;;0.70;0.70;;;7.10;99.90;;;;;;5027104;28;20207;-68
2021/08/22 02:20:56;;;;;;;0.55;0.55;;;7.10;99.90;;;;;;5013450;28;20337;-69
2021/08/22 02:23:22;;;;;;;0.70;0.70;;;7.10;99.90;;;;;;5049955;28;20205;-68
2021/08/22 02:25:48;;;;;;;0.60;0.60;;;7.10;99.90;;;;;;5045798;28;20194;-68
2021/08/22 02:28:14;;;;;;;0.60;0.60;;;7.10;99.90;;;;;;5034662;28;20205;-68
2021/08/22 02:30:40;;;;;;;0.60;0.60;;;7.00;99.90;;;;;;5050355;28;20209;-68
2021/08/22 02:33:07;;;;;;;0.80;0.80;;;7.00;99.90;;;;;;5038295;28;20259;-68
2021/08/22 02:35:34;;;;;;;0.70;0.70;;;6.90;99.90;;;;;;5028049;28;20208;-68
2021/08/22 02:38:00;;;;;;;0.60;0.60;;;6.90;99.90;;;;;;5028296;28;20692;-69
2021/08/22 02:40:26;;;;;;;0.70;0.70;;;6.90;99.90;;;;;;5045630;28;20244;-68
2021/08/22 02:42:51;;;;;;;0.60;0.60;;;6.90;99.90;;;;;;5020773;28;20288;-68
2021/08/22 02:45:17;;;;;;;16.95;1.95;;;6.90;99.90;;;;;;5044962;28;20244;-68
2021/08/22 02:47:43;;;;;;;0.60;0.60;;;6.90;99.90;;;;;;5031939;28;20214;-68
2021/08/22 02:50:09;;;;;;;0.70;0.70;;;6.90;99.90;;;;;;5040382;28;20197;-67
2021/08/22 02:52:35;;;;;;;0.70;0.70;;;6.80;99.90;;;;;;5019955;28;20201;-67
2021/08/22 02:55:00;;;;;;;0.68;0.68;;;6.80;99.90;;;;;;5013570;28;20210;-68
2021/08/22 02:57:26;;;;;;;0.68;0.68;;;6.80;99.90;;;;;;5035956;28;20229;-68
2021/08/22 02:59:52;;;;;;;0.60;0.60;;;6.70;99.90;;;;;;5037002;28;20301;-68
2021/08/22 03:02:17;;;;;;;0.60;0.60;;;6.70;99.90;;;;;;5017698;28;20305;-68
2021/08/22 03:04:43;;;;;;;0.60;0.60;;;6.70;99.90;;;;;;5019240;28;20641;-68
2021/08/22 03:07:09;;;;;;;0.70;0.70;;;6.70;99.90;;;;;;5030358;28;20213;-69
2021/08/22 03:09:34;;;;;;;1.65;1.55;;;6.60;99.90;;;;;;5028116;28;20217;-68
2021/08/22 03:12:00;;;;;;;1.40;1.33;;;6.60;99.90;;;;;;5019613;28;20291;-68
2021/08/22 03:14:27;;;;;;;0.70;0.70;;;6.60;99.90;;;;;;5034436;28;20221;-68
2021/08/22 03:16:53;;;;;;;0.70;0.70;;;6.50;99.90;;;;;;5029127;28;20205;-68
2021/08/22 03:19:18;;;;;;;0.60;0.60;;;6.50;99.90;;;;;;5016256;28;20754;-68
2021/08/22 03:21:45;;;;;;;0.60;0.60;;;6.50;99.90;;;;;;5038186;28;20608;-68
2021/08/22 03:24:12;;;;;;;0.57;0.57;;;6.50;99.90;;;;;;5050132;28;20194;-68
2021/08/22 03:26:38;;;;;;;0.63;0.63;;;6.50;99.90;;;;;;5037795;28;20210;-68
2021/08/22 03:29:04;;;;;;;0.65;0.65;;;6.50;99.90;;;;;;5031780;28;20602;-68
2021/08/22 03:31:30;;;;;;;0.60;0.60;;;6.50;99.90;;;;;;5020895;28;20198;-67
2021/08/22 03:33:55;;;;;;;0.80;0.80;;;6.50;99.90;;;;;;5039707;28;20645;-68
2021/08/22 03:36:21;;;;;;;0.70;0.70;;;6.50;99.90;;;;;;5016154;28;20210;-68
2021/08/22 03:38:47;;;;;;;0.70;0.70;;;6.50;99.90;;;;;;5030189;28;20224;-68
2021/08/22 03:41:13;;;;;;;1.23;1.00;;;6.50;99.90;;;;;;5032158;28;20684;-68
2021/08/22 03:43:39;;;;;;;0.70;0.70;;;6.50;99.90;;;;;;5017504;28;20202;-67
2021/08/22 03:46:05;;;;;;;0.70;0.70;;;6.50;99.90;;;;;;5029738;28;20278;-67
2021/08/22 03:48:31;;;;;;;1.33;1.05;;;6.50;99.90;;;;;;5022933;28;20197;-68
2021/08/22 03:50:57;;;;;;;0.70;0.70;;;6.40;99.90;;;;;;5036171;28;20202;-68
2021/08/22 03:53:22;;;;;;;0.60;0.60;;;6.60;99.90;;;;;;5032824;28;20218;-68
2021/08/22 03:55:48;;;;;;;0.60;0.60;;;6.60;99.90;;;;;;5032486;28;20692;-67
2021/08/22 03:58:14;;;;;;;3.22;1.02;;;6.70;99.90;;;;;;5033540;28;20210;-68
2021/08/22 04:00:40;;;;;;;0.68;0.68;;;6.70;99.90;;;;;;5013848;28;20220;-67
2021/08/22 04:03:06;;;;;;;0.70;0.70;;;6.70;99.90;;;;;;5038629;28;20218;-68
2021/08/22 04:05:33;;;;;;;0.60;0.60;;;6.70;99.90;;;;;;5019149;28;20205;-68
2021/08/22 04:07:59;;;;;;;0.68;0.68;;;6.70;99.90;;;;;;5052638;28;20684;-67
2021/08/22 04:10:26;;;;;;;0.70;0.70;;;6.70;99.90;;;;;;5022770;28;20205;-68
2021/08/22 04:12:54;;;;;;;0.70;0.70;;;6.80;99.90;;;;;;5042501;28;20284;-68
2021/08/22 04:15:20;;;;;;;0.80;0.80;;;6.80;99.90;;;;;;5038261;28;20554;-68
2021/08/22 04:17:46;;;;;;;0.90;0.90;;;6.70;99.90;;;;;;5042374;28;20209;-68
2021/08/22 04:20:13;;;;;;;0.63;0.63;;;6.70;99.90;;;;;;5034358;28;20225;-69
2021/08/22 04:22:39;;;;;;;0.70;0.70;;;6.80;99.90;;;;;;5021901;28;20206;-68
2021/08/22 04:25:07;;;;;;;0.60;0.60;;;6.80;99.90;;;;;;5021674;28;20201;-67
2021/08/22 04:27:33;;;;;;;0.80;0.80;;;6.90;99.90;;;;;;5042680;28;20240;-68
2021/08/22 04:29:59;;;;;;;0.70;0.70;;;6.90;99.90;;;;;;5037832;28;20206;-68
2021/08/22 04:32:25;;;;;;;0.50;0.50;;;7.00;99.90;;;;;;5025554;28;20209;-69
2021/08/22 04:34:50;;;;;;;0.82;0.82;;;7.10;99.90;;;;;;5037667;28;20202;-69
2021/08/22 04:37:16;;;;;;;0.60;0.60;;;7.20;99.90;;;;;;5042249;28;20297;-68
2021/08/22 04:39:42;;;;;;;0.57;0.57;;;7.20;99.90;;;;;;5041038;28;20207;-68
2021/08/22 04:42:07;;;;;;;0.80;0.80;;;7.40;99.90;;;;;;5052273;28;20233;-70
2021/08/22 04:44:33;;;;;;;0.80;0.80;;;7.60;99.90;;;;;;5024107;28;20195;-68
2021/08/22 04:46:59;;;;;;;0.52;0.52;;;7.80;99.90;;;;;;5031245;28;20274;-68
2021/08/22 04:49:24;;;;;;;0.68;0.68;;;7.90;99.90;;;;;;5023868;28;20713;-68
2021/08/22 04:51:50;;;;;;;0.70;0.70;;;8.00;99.90;;;;;;5030970;28;20226;-69
2021/08/22 04:54:16;;;;;;;0.60;0.60;;;8.20;99.90;;;;;;5024318;28;20653;-69
2021/08/22 04:56:41;;;;;;;0.70;0.70;;;8.30;99.90;;;;;;5020111;28;20220;-68
2021/08/22 04:59:08;;;;;;;0.60;0.60;;;8.40;99.90;;;;;;5044139;28;20644;-68
2021/08/22 05:01:34;;;;;;;0.60;0.60;;;8.50;99.90;;;;;;5043546;28;20202;-68
2021/08/22 05:04:00;;;;;;;0.90;0.90;;;8.60;99.90;;;;;;5035791;28;20226;-69
2021/08/22 05:06:25;;;;;;;0.68;0.68;;;8.60;99.90;;;;;;5050810;28;20606;-69
2021/08/22 05:08:51;;;;;;;0.95;0.80;;;8.70;99.90;;;;;;5034942;28;20509;-69
2021/08/22 05:11:17;;;;;;;0.60;0.60;;;8.80;99.90;;;;;;5017225;28;20649;-68
2021/08/22 05:13:42;;;;;;;1.27;1.17;;;8.90;99.90;;;;;;5023673;28;20637;-68
2021/08/22 05:16:08;;;;;;;0.90;0.90;;;8.90;99.90;;;;;;5037140;28;20613;-71
2021/08/22 05:18:34;;;;;;;0.68;0.68;;;9.00;99.90;;;;;;5042991;28;20602;-68
2021/08/22 05:21:00;;;;;;;0.60;0.60;;;9.10;99.90;;;;;;5037530;28;20217;-68
2021/08/22 05:23:26;;;;;;;0.68;0.68;;;9.20;99.90;;;;;;5024808;28;20239;-69
2021/08/22 05:25:52;;;;;;;0.60;0.60;;;9.20;99.90;;;;;;5011870;28;20308;-68
2021/08/22 05:28:17;;;;;;;0.65;0.65;;;9.30;99.90;;;;;;5038683;28;20272;-68
2021/08/22 05:30:43;;;;;;;1.08;1.08;;;9.40;99.90;;;;;;5037051;28;20660;-69
2021/08/22 05:33:09;;;;;;;0.60;0.60;;;9.60;99.90;;;;;;5041801;28;20225;-68
2021/08/22 05:35:35;;;;;;;1.00;0.98;;;9.70;99.90;;;;;;5035669;28;20198;-68
2021/08/22 05:38:01;;;;;;;0.60;0.60;;;9.70;99.90;;;;;;5037585;28;20288;-68
2021/08/22 05:40:27;;;;;;;0.60;0.60;;;9.80;99.90;;;;;;5011033;28;20290;-68
2021/08/22 05:42:52;;;;;;;0.60;0.60;;;9.80;99.90;;;;;;5014596;28;20234;-68
2021/08/22 05:45:18;;;;;;;0.60;0.60;;;9.70;99.90;;;;;;5036833;28;20198;-68
2021/08/22 05:47:44;;;;;;;0.65;0.65;;;9.60;99.90;;;;;;5021132;28;20300;-70
2021/08/22 05:50:09;;;;;;;2.40;0.93;;;9.60;99.90;;;;;;5018719;28;20256;-68
2021/08/22 05:52:36;;;;;;;0.80;0.80;;;9.50;99.90;;;;;;5017976;28;20202;-68
2021/08/22 05:55:07;;;;;;;0.60;0.60;;;9.50;99.90;;;;;;5041254;28;20218;-67
2021/08/22 05:57:33;;;;;;;0.50;0.50;;;9.60;99.90;;;;;;5040939;28;20602;-68
2021/08/22 06:00:00;;;;;;;0.68;0.68;;;9.80;99.90;;;;;;5040524;28;20661;-70
2021/08/22 06:02:26;;;;;;;0.63;0.63;;;10.00;99.90;;;;;;5008670;28;20224;-68
2021/08/22 06:04:51;;;;;;;0.80;0.80;;;10.20;99.90;;;;;;5022154;28;20298;-68
2021/08/22 06:07:20;;;;;;;0.95;0.95;;;10.40;99.90;;;;;;5050006;28;20551;-68
2021/08/22 06:09:52;;;;;;;1.50;0.88;;;10.60;99.90;;;;;;5035684;28;20202;-69
2021/08/22 06:12:20;;;;;;;0.82;0.82;;;10.70;99.90;;;;;;5033081;28;20206;-68
2021/08/22 06:14:46;;;;;;;0.60;0.60;;;10.90;99.90;;;;;;5040046;28;20206;-72
2021/08/22 06:17:12;;;;;;;0.90;0.90;;;11.10;99.90;;;;;;5033094;28;20197;-72
2021/08/22 06:19:38;;;;;;;0.68;0.68;;;11.30;99.90;;;;;;5026924;28;20605;-68
2021/08/22 06:22:05;;;;;;;0.60;0.60;;;11.50;99.90;;;;;;5046791;28;20644;-69
2021/08/22 06:24:32;;;;;;;0.70;0.70;;;11.50;99.90;;;;;;5018682;28;20233;-68
2021/08/22 06:26:58;;;;;;;1.08;0.98;;;11.40;99.90;;;;;;5033219;28;20205;-68
2021/08/22 06:29:24;;;;;;;0.65;0.65;;;11.30;99.90;;;;;;5038411;28;20206;-68
2021/08/22 06:31:50;;;;;;;0.50;0.50;;;11.40;99.90;;;;;;5022576;28;20233;-69
2021/08/22 06:34:16;;;;;;;0.93;0.93;;;11.60;99.90;;;;;;5022868;28;20197;-68
2021/08/22 06:36:42;;;;;;;0.60;0.60;;;11.90;99.90;;;;;;5050789;28;20213;-68
2021/08/22 06:39:09;;;;;;;1.10;1.00;;;12.10;99.90;;;;;;5038721;28;20280;-69
2021/08/22 06:41:35;;;;;;;0.50;0.50;;;12.30;99.90;;;;;;5015601;28;20245;-68
2021/08/22 06:44:01;;;;;;;0.60;0.60;;;12.50;99.90;;;;;;5038737;28;20212;-69
2021/08/22 06:46:27;;;;;;;0.60;0.60;;;12.70;99.90;;;;;;5042555;28;20198;-69
2021/08/22 06:48:53;;;;;;;0.70;0.70;;;12.80;99.90;;;;;;5020206;28;20235;-69
2021/08/22 06:51:18;;;;;;;0.60;0.60;;;12.80;99.90;;;;;;5042433;28;20317;-71
2021/08/22 06:53:44;;;;;;;0.50;0.50;;;12.70;99.90;;;;;;5031268;28;20203;-71
2021/08/22 06:56:10;;;;;;;0.65;0.65;;;12.70;99.90;;;;;;5013896;28;20206;-70
2021/08/22 06:58:35;;;;;;;0.50;0.50;;;12.80;99.90;;;;;;5047383;28;20202;-70
2021/08/22 07:01:02;;;;;;;0.50;0.50;;;12.90;99.90;;;;;;5019712;28;20220;-70
2021/08/22 07:03:27;;;;;;;0.93;0.93;;;13.10;99.90;;;;;;5025502;28;20233;-70
2021/08/22 07:05:53;;;;;;;0.50;0.50;;;13.30;99.90;;;;;;5032277;28;20209;-70
2021/08/22 07:08:18;;;;;;;0.80;0.80;;;13.40;99.90;;;;;;5016536;28;20298;-71
2021/08/22 07:10:44;;;;;;;0.60;0.60;;;13.50;99.90;;;;;;5017718;28;20296;-70
2021/08/22 07:13:10;;;;;;;0.50;0.50;;;13.60;99.90;;;;;;5041488;28;20201;-70
2021/08/22 07:15:36;;;;;;;0.50;0.50;;;13.60;99.90;;;;;;5012934;28;20680;-70
2021/08/22 07:18:02;;;;;;;0.52;0.52;;;13.80;99.90;;;;;;5039919;28;20209;-72
2021/08/22 07:20:27;;;;;;;0.50;0.50;;;14.00;99.90;;;;;;5033171;28;20236;-70
2021/08/22 07:22:53;;;;;;;0.40;0.40;;;14.10;99.90;;;;;;5031015;28;20632;-70
2021/08/22 07:25:21;;;;;;;0.60;0.60;;;14.20;99.90;;;;;;5017954;28;20202;-70
2021/08/22 07:27:48;;;;;;;0.50;0.50;;;14.20;99.90;;;;;;5032515;28;20197;-70
2021/08/22 07:30:14;;;;;;;0.43;0.43;;;14.30;99.90;;;;;;5048800;28;20211;-70
2021/08/22 07:32:40;;;;;;;0.50;0.50;;;14.40;99.90;;;;;;5025566;28;20576;-69
2021/08/22 07:35:06;;;;;;;0.77;0.77;;;14.40;99.90;;;;;;5038929;28;20218;-70
2021/08/22 07:37:32;;;;;;;0.52;0.52;;;14.50;99.90;;;;;;5047331;28;20672;-70
2021/08/22 07:39:58;;;;;;;0.43;0.43;;;14.50;99.90;;;;;;5049090;28;20262;-70
2021/08/22 07:42:24;;;;;;;0.73;0.70;;;14.80;99.90;;;;;;5029449;28;20202;-70
2021/08/22 07:44:49;;;;;;;0.50;0.50;;;15.00;99.90;;;;;;5011348;28;20269;-70
2021/08/22 07:47:15;;;;;;;1.48;1.38;;;15.10;99.90;;;;;;5037382;28;20205;-70
2021/08/22 07:49:41;;;;;;;0.60;0.60;;;15.20;99.90;;;;;;5014314;28;20615;-70
2021/08/22 07:52:06;;;;;;;0.60;0.60;;;15.40;99.90;;;;;;5020306;28;20285;-72
2021/08/22 07:54:32;;;;;;;0.77;0.77;;;15.40;99.90;;;;;;5037951;28;20313;-72
2021/08/22 07:56:59;;;;;;;0.40;0.40;;;15.40;99.90;;;;;;5033712;28;20201;-72
2021/08/22 07:59:25;;;;;;;1.15;0.80;;;15.60;99.90;;;;;;5039699;28;20227;-70
2021/08/22 08:01:50;;;;;;;0.95;0.95;;;15.70;99.90;;;;;;5034389;28;20582;-71
2021/08/22 08:04:16;;;;;;;0.50;0.50;;;15.90;99.90;;;;;;5039790;28;20230;-70
2021/08/22 08:06:42;;;;;;;0.50;0.50;;;15.80;99.90;;;;;;5035825;28;20253;-70
2021/08/22 08:09:08;;;;;;;0.50;0.50;;;15.80;99.90;;;;;;5043725;28;20209;-71
2021/08/22 08:11:34;;;;;;;0.70;0.70;;;16.10;99.90;;;;;;5018787;28;20221;-70
2021/08/22 08:13:59;;;;;;;0.40;0.40;;;16.20;99.90;;;;;;5043966;28;20275;-70
2021/08/22 08:16:25;;;;;;;0.40;0.40;;;16.60;99.90;;;;;;5044720;28;20206;-70
2021/08/22 08:18:51;;;;;;;0.30;0.30;;;16.90;99.90;;;;;;5036456;28;20213;-70
2021/08/22 08:21:16;;;;;;;0.30;0.30;;;17.20;99.90;;;;;;5022675;28;20212;-69
2021/08/22 08:23:42;;;;;;;0.43;0.43;;;17.40;99.90;;;;;;5042156;28;20638;-70
2021/08/22 08:26:08;;;;;;;0.57;0.50;;;17.40;99.90;;;;;;5024897;28;20684;-69
2021/08/22 08:28:34;;;;;;;0.30;0.30;;;17.60;99.90;;;;;;5039622;28;20228;-69
2021/08/22 08:30:59;;;;;;;0.30;0.30;;;17.50;99.90;;;;;;5016610;28;20205;-69
2021/08/22 08:33:25;;;;;;;0.65;0.32;;;18.00;99.90;;;;;;5019730;28;20618;-71
2021/08/22 08:35:51;;;;;;;0.30;0.30;;;18.70;99.90;;;;;;5039232;28;20672;-72
2021/08/22 08:38:17;;;;;;;0.30;0.30;;;18.70;99.90;;;;;;5037032;28;20218;-70
2021/08/22 08:40:43;;;;;;;0.30;0.30;;;19.40;99.90;;;;;;5034948;28;20225;-70
2021/08/22 08:43:13;;;;;;;0.22;0.22;;;19.80;99.90;;;;;;5034542;28;20210;-70
2021/08/22 08:45:52;;;;;;;1.65;0.52;;;20.40;99.90;;;;;;5022130;28;20297;-70
2021/08/22 08:48:26;;;;;;;0.30;0.30;;;20.30;99.90;;;;;;5037316;28;20198;-71
2021/08/22 08:51:19;;;;;;;0.20;0.20;;;20.20;99.90;;;;;;5038738;28;20304;-70
2021/08/22 08:54:11;;;;;;;0.20;0.20;;;20.30;99.90;;;;;;5023173;28;20308;-70
2021/08/22 08:56:44;;;;;;;0.20;0.20;;;20.60;99.90;;;;;;5043493;28;20288;-72
2021/08/22 08:59:11;;;;;;;0.20;0.20;;;20.40;99.90;;;;;;5038614;28;20289;-69
2021/08/22 09:01:38;;;;;;;0.50;0.50;;;20.20;99.90;;;;;;5023685;28;20266;-70
2021/08/22 09:04:11;;;;;;;0.50;0.50;;;20.00;99.90;;;;;;5041183;28;20304;-70
2021/08/22 09:07:34;;;;;;;1.17;0.45;;;19.70;99.90;;;;;;5035186;28;20205;-71
2021/08/22 09:10:18;;;;;;;0.85;0.57;;;20.20;99.90;;;;;;4955929;28;20530;-71
2021/08/22 09:13:20;;;;;;;0.30;0.30;;;20.50;99.90;;;;;;4951989;28;20216;-71
2021/08/22 09:16:23;;;;;;;0.30;0.30;;;20.10;99.40;;;;;;5045077;28;20394;-72
2021/08/22 09:19:26;;;;;;;0.50;0.50;;;19.90;99.90;;;;;;5051989;28;20197;-71
2021/08/22 09:22:29;;;;;;;0.20;0.20;;;20.20;99.90;;;;;;5046425;28;20211;-72
2021/08/22 09:25:32;;;;;;;0.20;0.20;;;20.80;99.90;;;;;;5037179;28;20206;-71
2021/08/22 09:28:35;;;;;;;0.45;0.45;;;21.20;97.80;;;;;;5040483;28;20743;-70
2021/08/22 09:31:46;;;;;;;0.22;0.22;;;21.10;98.50;;;;;;5044893;28;20205;-71
2021/08/22 09:34:36;;;;;;;0.28;0.28;;;21.50;99.00;;;;;;5003614;28;20222;-71
2021/08/22 09:37:09;;;;;;;0.30;0.30;;;22.00;97.90;;;;;;5046154;28;20197;-69
2021/08/22 09:40:12;;;;;;;0.30;0.30;;;22.40;97.00;;;;;;5024219;28;20284;-69
2021/08/22 09:43:14;;;;;;;0.20;0.20;;;22.80;95.60;;;;;;5038170;28;21697;-69
2021/08/22 09:45:59;;;;;;;0.20;0.20;;;23.20;94.30;;;;;;5032366;28;20202;-71
2021/08/22 09:49:02;;;;;;;0.20;0.20;;;23.00;94.50;;;;;;5030119;28;20205;-72
2021/08/22 09:51:42;;;;;;;0.40;0.25;;;22.60;88.90;;;;;;5021745;28;20531;-73
2021/08/22 09:54:38;;;;;;;0.30;0.30;;;22.20;90.80;;;;;;5034310;28;20209;-72
2021/08/22 09:57:42;;;;;;;0.30;0.30;;;22.20;87.40;;;;;;5019838;28;20233;-72
2021/08/22 10:00:23;;;;;;;0.70;0.40;;;22.20;88.60;;;;;;5007533;28;20256;-72
2021/08/22 10:03:12;;;;;;;0.20;0.20;;;22.20;95.10;;;;;;5034347;28;20343;-73
2021/08/22 10:05:43;;;;;;;0.28;0.28;;;22.20;90.20;;;;;;5027992;28;20249;-71
2021/08/22 10:08:28;;;;;;;0.38;0.35;;;22.30;89.90;;;;;;5049315;28;20202;-72
2021/08/22 10:11:03;;;;;;;0.40;0.40;;;22.20;91.10;;;;;;5044903;28;20214;-73
2021/08/22 10:13:36;;;;;;;0.75;0.63;;;21.90;91.20;;;;;;5034156;28;20200;-72
2021/08/22 10:16:01;;;;;;;0.30;0.20;;;21.90;91.60;;;;;;5040523;28;20206;-72
2021/08/22 10:18:27;;;;;;;0.20;0.20;;;22.10;88.40;;;;;;5024762;28;20205;-72
2021/08/22 10:21:07;;;;;;;0.20;0.20;;;22.00;92.00;;;;;;5048313;28;20284;-72
2021/08/22 10:23:38;;;;;;;0.17;0.17;;;22.60;93.20;;;;;;5015025;28;20210;-70
2021/08/22 10:26:05;;;;;;;2.83;0.40;;;22.70;90.70;;;;;;5018001;28;20261;-72
2021/08/22 10:28:49;;;;;;;2.33;0.60;;;23.00;91.50;;;;;;5048592;28;20202;-73
2021/08/22 10:31:50;;;;;;;0.20;0.20;;;22.90;90.80;;;;;;5024674;28;20201;-71
2021/08/22 10:34:18;;;;;;;0.20;0.20;;;22.90;90.80;;;;;;5050663;28;20213;-73
2021/08/22 10:36:44;;;;;;;0.28;0.28;;;22.70;86.70;;;;;;5040699;28;20213;-73
2021/08/22 10:39:22;;;;;;;0.30;0.30;;;22.90;90.80;;;;;;5041833;28;20300;-73
2021/08/22 10:41:54;;;;;;;0.20;0.20;;;23.10;88.80;;;;;;5036257;28;20208;-72
2021/08/22 10:44:32;;;;;;;0.20;0.20;;;22.70;89.10;;;;;;5042049;28;20248;-72
2021/08/22 10:47:22;;;;;;;0.30;0.30;;;22.50;89.20;;;;;;5038772;28;20205;-73
2021/08/22 10:49:51;;;;;;;0.20;0.20;;;22.40;88.90;;;;;;5001640;28;20214;-72
2021/08/22 10:52:25;;;;;;;0.20;0.20;;;22.60;90.20;;;;;;5033973;28;20201;-73
2021/08/22 10:55:06;;;;;;;0.30;0.30;;;22.70;87.90;;;;;;5038255;28;20300;-72
2021/08/22 11:00:22;;;;;;;0.17;0.17;;;23.50;81.50;;;;;;5036748;28;20220;-73
2021/08/22 11:02:51;;;;;;;1.85;0.47;;;23.80;84.40;;;;;;5014233;28;20231;-75
2021/08/22 11:05:18;;;;;;;0.25;0.25;;;23.60;84.00;;;;;;5015247;28;20219;-75
2021/08/22 11:07:46;;;;;;;1.17;0.82;;;23.30;86.10;;;;;;5012521;28;20215;-76
2021/08/22 11:10:15;;;;;;;0.10;0.10;;;23.20;85.70;;;;;;5018063;28;20206;-74
2021/08/22 11:12:42;;;;;;;0.20;0.20;;;23.10;83.40;;;;;;5011083;28;20226;-76
2021/08/22 11:15:12;;;;;;;0.20;0.20;;;22.90;87.00;;;;;;5013120;28;20213;-73
2021/08/22 11:17:48;;;;;;;0.20;0.20;;;22.40;84.30;;;;;;5034343;28;20538;-75
2021/08/22 11:20:15;;;;;;;0.20;0.20;;;22.60;88.30;;;;;;5015951;28;20220;-76
2021/08/22 11:22:41;;;;;;;0.20;0.20;;;23.20;87.10;;;;;;5032268;28;20574;-76
2021/08/22 11:25:08;;;;;;;1.27;0.73;;;23.60;87.90;;;;;;5014241;28;20289;-72
2021/08/22 11:27:34;;;;;;;0.40;0.40;;;23.90;80.30;;;;;;5030927;28;20271;-74
2021/08/22 11:30:02;;;;;;;0.20;0.20;;;23.70;86.00;;;;;;5031261;28;20206;-73
2021/08/22 11:32:29;;;;;;;0.20;0.20;;;23.50;83.70;;;;;;5030977;28;20540;-70
2021/08/22 11:35:09;;;;;;;0.20;0.20;;;23.70;90.20;;;;;;5030911;28;20201;-74
2021/08/22 11:37:34;;;;;;;0.20;0.20;;;24.20;86.20;;;;;;5014115;28;20216;-70
2021/08/22 11:40:09;;;;;;;0.20;0.20;;;23.90;85.40;;;;;;5031423;28;20641;-74
2021/08/22 11:42:35;;;;;;;0.88;0.88;;;24.00;85.10;;;;;;5027259;28;20246;-71
2021/08/22 11:45:13;;;;;;;0.30;0.30;;;24.40;84.80;;;;;;5017743;28;20206;-72
2021/08/22 11:47:39;;;;;;;0.20;0.20;;;24.20;81.20;;;;;;5030394;28;20201;-73
2021/08/22 11:50:08;;;;;;;0.13;0.13;;;23.40;85.50;;;;;;5013971;28;20221;-76
2021/08/22 11:52:36;;;;;;;0.20;0.20;;;23.70;88.30;;;;;;5023739;28;20236;-74
2021/08/22 11:55:06;;;;;;;0.55;0.40;;;24.10;82.60;;;;;;5014012;28;20208;-75
2021/08/22 11:57:32;;;;;;;16.75;0.63;;;24.00;84.20;;;;;;5030755;28;20198;-68
2021/08/22 12:00:05;;;;;;;0.20;0.20;;;24.20;83.10;;;;;;5030847;28;20263;-73
2021/08/22 12:02:31;;;;;;;0.20;0.20;;;24.10;81.30;;;;;;5030722;28;20229;-74
2021/08/22 12:05:20;;;;;;;0.35;0.35;;;23.70;85.80;;;;;;5049367;28;20209;-73
2021/08/22 12:07:48;;;;;;;0.30;0.30;;;23.90;85.40;;;;;;5038163;28;20272;-71
2021/08/22 12:10:26;;;;;;;0.50;0.50;;;23.80;84.00;;;;;;5034560;28;20288;-73
2021/08/22 12:12:53;;;;;;;0.20;0.20;;;23.50;82.20;;;;;;5038791;28;20258;-72
2021/08/22 12:15:19;;;;;;;0.20;0.20;;;23.40;85.30;;;;;;5046920;28;20599;-71
2021/08/22 12:17:45;;;;;;;0.30;0.30;;;23.60;87.80;;;;;;5034710;28;20204;-71
2021/08/22 12:20:21;;;;;;;0.30;0.30;;;24.20;86.50;;;;;;5040805;28;20210;-71
2021/08/22 12:23:04;;;;;;;0.17;0.17;;;24.40;83.90;;;;;;5048604;28;20210;-71
2021/08/22 12:25:30;;;;;;;0.32;0.32;;;24.40;81.90;;;;;;5037092;28;20214;-73
2021/08/22 12:28:26;;;;;;;0.30;0.30;;;24.20;83.70;;;;;;5042219;28;20206;-70
2021/08/22 12:31:10;;;;;;;0.20;0.20;;;24.50;79.30;;;;;;5024148;28;20242;-74
2021/08/22 12:33:38;;;;;;;0.20;0.20;;;24.20;81.50;;;;;;5045190;28;20209;-70
2021/08/22 12:36:12;;;;;;;0.30;0.30;;;24.50;84.50;;;;;;5052553;28;20278;-73
2021/08/22 12:38:55;;;;;;;0.10;0.10;;;24.80;79.90;;;;;;5035459;28;20304;-73
2021/08/22 12:41:22;;;;;;;0.10;0.10;;;25.00;81.10;;;;;;5053422;28;20208;-72
2021/08/22 12:43:47;;;;;;;0.70;0.40;;;25.10;82.90;;;;;;5054237;28;20212;-75
2021/08/22 12:46:13;;;;;;;1.45;0.30;;;25.10;80.10;;;;;;5054885;28;20664;-73
2021/08/22 12:48:39;;;;;;;0.20;0.20;;;24.90;77.80;;;;;;5034396;28;20817;-72
2021/08/22 12:51:11;;;;;;;1.08;0.57;;;24.80;82.10;;;;;;5035518;28;20231;-71
2021/08/22 12:53:38;;;;;;;1.02;0.88;;;24.00;83.60;;;;;;5053705;28;20280;-69
2021/08/22 12:56:04;;;;;;;0.30;0.30;;;23.30;83.80;;;;;;5052094;28;20734;-71
2021/08/22 12:58:30;;;;;;;1.08;1.05;;;22.60;81.00;;;;;;5052672;28;20197;-71
2021/08/22 13:00:57;;;;;;;0.98;0.93;;;22.30;84.00;;;;;;5053369;28;20213;-71
2021/08/22 13:03:23;;;;;;;0.40;0.40;;;22.90;88.00;;;;;;5041676;28;20226;-70
2021/08/22 13:05:48;;;;;;;0.20;0.20;;;23.10;82.10;;;;;;5033304;28;20210;-71
2021/08/22 13:08:14;;;;;;;0.30;0.30;;;23.30;83.90;;;;;;5033297;28;20213;-71